Time;durP1;ratioP1;P1;durP2;ratioP2;P2;SDS_P1;SDS_P2;PMS_P1;PMS_P2;Temp;Humidity;BMP_temperature;BMP_pressure;BME280_temperature;BME280_humidity;BME280_pressure;Samples;Min_cycle;Max_cycle;Signal;HPM_P1;HPM_P2
2022/11/21 00:00:34;;;;;;;80.38;30.75;;;;;;;0.96;100.00;100714.00;5033504;28;20040;-79
2022/11/21 00:03:00;;;;;;;87.13;30.38;;;;;;;0.98;100.00;100706.06;5033654;28;20025;-79
2022/11/21 00:05:27;;;;;;;87.10;31.20;;;;;;;0.96;100.00;100697.44;5033981;28;20052;-79
2022/11/21 00:07:53;;;;;;;76.47;29.45;;;;;;;0.94;100.00;100705.38;5033306;28;20030;-78
2022/11/21 00:10:18;;;;;;;80.63;29.42;;;;;;;0.92;100.00;100704.59;5033701;28;20033;-79
2022/11/21 00:12:44;;;;;;;75.72;29.20;;;;;;;0.91;100.00;100694.19;5033432;28;20497;-79
2022/11/21 00:15:09;;;;;;;81.60;30.13;;;;;;;0.88;100.00;100693.44;5033215;28;20564;-79
2022/11/21 00:17:35;;;;;;;83.07;30.15;;;;;;;0.88;100.00;100684.72;5033483;28;20525;-79
2022/11/21 00:20:00;;;;;;;80.55;28.90;;;;;;;0.87;100.00;100694.38;5032162;28;20466;-79
2022/11/21 00:22:25;;;;;;;77.00;30.00;;;;;;;0.88;100.00;100700.44;5033330;28;20108;-79
2022/11/21 00:24:51;;;;;;;86.15;29.92;;;;;;;0.88;100.00;100705.69;5033083;28;20088;-80
2022/11/21 00:27:16;;;;;;;108.18;31.65;;;;;;;0.87;100.00;100710.09;5033467;28;20117;-80
2022/11/21 00:29:41;;;;;;;82.82;29.15;;;;;;;0.87;100.00;100704.84;5033194;28;20466;-80
2022/11/21 00:32:07;;;;;;;80.20;29.15;;;;;;;0.87;100.00;100699.59;5033728;28;20029;-80
2022/11/21 00:34:32;;;;;;;79.50;28.75;;;;;;;0.87;100.00;100704.84;5032894;28;20030;-81
2022/11/21 00:36:57;;;;;;;85.95;31.08;;;;;;;0.87;100.00;100719.72;5033107;28;20033;-80
2022/11/21 00:39:23;;;;;;;84.78;30.63;;;;;;;0.88;100.00;100718.78;5033187;28;20086;-80
2022/11/21 00:41:48;;;;;;;99.82;31.27;;;;;;;0.92;100.00;100722.09;5033042;28;20393;-80
2022/11/21 00:44:13;;;;;;;95.75;32.30;;;;;;;0.94;100.00;100713.25;5034793;28;20457;-80
2022/11/21 00:46:38;;;;;;;102.43;34.95;;;;;;;0.95;100.00;100698.38;5036888;28;20091;-80
2022/11/21 00:49:04;;;;;;;99.95;33.63;;;;;;;0.97;100.00;100705.22;5037266;28;20042;-79
2022/11/21 00:51:29;;;;;;;114.35;36.15;;;;;;;0.98;100.00;100717.38;5037525;28;20084;-79
2022/11/21 00:53:54;;;;;;;123.03;37.33;;;;;;;0.97;100.00;100701.75;5037031;28;20045;-79
2022/11/21 00:56:20;;;;;;;113.25;36.25;;;;;;;0.97;100.00;100701.75;5037007;28;20459;-79
2022/11/21 00:58:45;;;;;;;142.57;37.10;;;;;;;0.97;100.00;100694.75;5037115;28;20480;-79
2022/11/21 01:01:13;;;;;;;129.20;37.38;;;;;;;0.97;100.00;100707.84;5037433;28;20080;-79
2022/11/21 01:03:40;;;;;;;131.63;37.75;;;;;;;0.95;100.00;100711.47;5037542;28;20163;-79
2022/11/21 01:06:08;;;;;;;137.55;38.22;;;;;;;0.91;100.00;100702.06;5036927;28;20034;-79
2022/11/21 01:08:35;;;;;;;125.25;37.38;;;;;;;0.89;100.00;100704.75;5036887;28;20038;-79
2022/11/21 01:11:06;;;;;;;120.30;36.15;;;;;;;0.85;100.00;100701.47;5036797;28;20030;-79
2022/11/21 01:13:33;;;;;;;123.63;36.63;;;;;;;0.85;100.00;100705.84;5036950;28;20064;-79
2022/11/21 01:16:06;;;;;;;142.27;37.63;;;;;;;0.81;100.00;100686.84;5036398;28;20049;-78
2022/11/21 01:18:32;;;;;;;121.93;37.17;;;;;;;0.81;100.00;100683.38;5037135;28;20041;-79
2022/11/21 01:21:00;;;;;;;115.22;37.35;;;;;;;0.80;100.00;100679.88;5035814;28;20112;-79
2022/11/21 01:23:27;;;;;;;145.48;42.72;;;;;;;0.78;100.00;100676.50;5036612;28;20486;-79
2022/11/21 01:25:52;;;;;;;129.10;36.05;;;;;;;0.75;100.00;100678.44;5035416;28;20347;-79
2022/11/21 01:28:17;;;;;;;135.35;37.72;;;;;;;0.73;100.00;100685.53;5036373;28;20107;-79
2022/11/21 01:30:43;;;;;;;131.50;37.95;;;;;;;0.70;100.00;100682.16;5036918;28;20029;-79
2022/11/21 01:33:08;;;;;;;144.20;38.75;;;;;;;0.68;100.00;100680.53;5036705;28;20038;-79
2022/11/21 01:35:33;;;;;;;122.78;37.10;;;;;;;0.67;100.00;100687.56;5036342;28;20422;-80
2022/11/21 01:37:59;;;;;;;127.03;37.38;;;;;;;0.67;100.00;100684.94;5035847;28;20037;-79
2022/11/21 01:40:24;;;;;;;143.30;38.17;;;;;;;0.66;100.00;100678.00;5036064;28;20044;-79
2022/11/21 01:42:59;;;;;;;139.20;37.83;;;;;;;0.68;100.00;100688.41;5036311;28;20061;-81
2022/11/21 01:45:52;;;;;;;124.95;35.63;;;;;;;0.67;100.00;100684.94;5036268;28;20034;-80
2022/11/21 01:48:18;;;;;;;141.25;36.38;;;;;;;0.70;100.00;100690.03;5036610;28;20133;-80
2022/11/21 01:50:44;;;;;;;129.43;37.65;;;;;;;0.73;100.00;100690.78;5036088;28;20036;-80
2022/11/21 01:53:10;;;;;;;155.90;38.10;;;;;;;0.74;100.00;100695.94;5036193;28;20108;-79
2022/11/21 01:55:36;;;;;;;146.02;37.78;;;;;;;0.76;100.00;100690.59;5035242;28;20168;-80
2022/11/21 01:58:02;;;;;;;164.27;36.28;;;;;;;0.79;100.00;100690.44;5034963;28;20033;-78
2022/11/21 02:00:34;;;;;;;128.10;36.03;;;;;;;0.80;100.00;100692.16;5035769;28;20040;-78
2022/11/21 02:03:08;;;;;;;163.40;39.42;;;;;;;0.81;100.00;100699.09;5036064;28;20033;-79
2022/11/21 02:05:36;;;;;;;146.55;37.35;;;;;;;0.83;100.00;100694.59;5036466;28;20285;-78
2022/11/21 02:08:08;;;;;;;175.95;38.08;;;;;;;0.83;100.00;100698.06;5036259;28;20036;-79
2022/11/21 02:10:37;;;;;;;130.75;35.22;;;;;;;0.84;100.00;100705.00;5035849;28;20029;-78
2022/11/21 02:13:02;;;;;;;134.63;35.47;;;;;;;0.85;100.00;100697.97;5036130;28;20030;-78
2022/11/21 02:15:28;;;;;;;138.50;35.97;;;;;;;0.84;100.00;100694.53;5040330;28;20374;-78
2022/11/21 02:17:54;;;;;;;139.18;38.08;;;;;;;0.85;100.00;100691.00;5040504;28;20056;-79
2022/11/21 02:20:22;;;;;;;153.73;37.17;;;;;;;0.85;100.00;100691.00;5035923;28;20037;-78
2022/11/21 02:23:06;;;;;;;162.15;37.33;;;;;;;0.85;100.00;100697.97;5035696;28;20362;-79
2022/11/21 02:25:41;;;;;;;123.75;35.90;;;;;;;0.88;100.00;100705.69;5035744;28;20029;-79
2022/11/21 02:28:10;;;;;;;122.82;35.55;;;;;;;0.87;100.00;100693.53;5035329;28;20029;-79
2022/11/21 02:30:37;;;;;;;138.18;34.88;;;;;;;0.90;100.00;100693.38;5035416;28;20033;-79
2022/11/21 02:33:03;;;;;;;143.63;36.15;;;;;;;0.91;100.00;100691.59;5033981;28;20044;-79
2022/11/21 02:35:29;;;;;;;134.05;34.72;;;;;;;0.92;100.00;100678.41;5035281;28;20033;-79
2022/11/21 02:38:00;;;;;;;192.38;37.03;;;;;;;0.93;100.00;100663.56;5035133;28;20029;-79
2022/11/21 02:40:38;;;;;;;168.43;35.40;;;;;;;0.91;100.00;100655.78;5035269;28;20037;-79
2022/11/21 02:43:21;;;;;;;132.40;34.65;;;;;;;0.88;100.00;100659.41;5035055;28;20033;-79
2022/11/21 02:45:47;;;;;;;148.90;35.05;;;;;;;0.88;100.00;100679.47;5034739;28;20044;-79
2022/11/21 02:48:13;;;;;;;170.57;35.83;;;;;;;0.89;100.00;100670.72;5035002;28;20042;-79
2022/11/21 02:50:40;;;;;;;129.50;35.38;;;;;;;0.88;100.00;100667.25;5034754;28;20425;-79
2022/11/21 02:53:09;;;;;;;130.07;35.00;;;;;;;0.89;100.00;100670.72;5034978;28;20056;-79
2022/11/21 02:55:35;;;;;;;120.40;36.45;;;;;;;0.90;100.00;100672.41;5035098;28;20087;-78
2022/11/21 02:58:01;;;;;;;129.93;35.58;;;;;;;0.86;100.00;100669.09;5034397;28;20037;-79
2022/11/21 03:00:26;;;;;;;148.48;36.33;;;;;;;0.87;100.00;100672.56;5033628;28;20068;-79
2022/11/21 03:02:54;;;;;;;143.73;38.38;;;;;;;0.90;100.00;100675.03;5034581;28;20033;-79
2022/11/21 03:05:21;;;;;;;129.75;37.30;;;;;;;0.92;100.00;100665.31;5033036;28;20042;-79
2022/11/21 03:07:47;;;;;;;153.30;36.45;;;;;;;0.92;100.00;100664.47;5034872;28;20029;-79
2022/11/21 03:10:13;;;;;;;133.68;36.28;;;;;;;0.93;100.00;100658.31;5034813;28;20083;-78
2022/11/21 03:12:39;;;;;;;118.53;36.40;;;;;;;0.93;100.00;100659.16;5034586;28;20041;-79
2022/11/21 03:15:07;;;;;;;144.00;35.35;;;;;;;0.95;100.00;100659.06;5034219;28;20041;-79
2022/11/21 03:17:33;;;;;;;145.57;37.40;;;;;;;0.94;100.00;100657.38;5034384;28;20497;-79
2022/11/21 03:19:59;;;;;;;177.50;37.08;;;;;;;0.95;100.00;100662.53;5034372;28;20037;-79
2022/11/21 03:22:24;;;;;;;146.95;36.67;;;;;;;0.95;100.00;100666.94;5034309;28;20045;-78
2022/11/21 03:24:50;;;;;;;156.20;35.75;;;;;;;0.96;100.00;100655.53;5034840;28;20538;-79
2022/11/21 03:27:15;;;;;;;200.88;39.50;;;;;;;0.96;100.00;100650.28;5034529;28;20042;-80
2022/11/21 03:29:41;;;;;;;148.75;35.30;;;;;;;0.95;100.00;100644.19;5034458;28;20030;-78
2022/11/21 03:32:06;;;;;;;118.43;34.90;;;;;;;0.94;100.00;100641.63;5034096;28;20139;-79
2022/11/21 03:34:31;;;;;;;118.55;33.58;;;;;;;0.94;100.00;100646.88;5034162;28;20036;-80
2022/11/21 03:36:57;;;;;;;121.38;34.22;;;;;;;0.93;100.00;100650.44;5034157;28;20390;-78
2022/11/21 03:39:22;;;;;;;160.15;35.65;;;;;;;0.93;100.00;100640.81;5033764;28;20033;-79
2022/11/21 03:41:47;;;;;;;135.85;34.20;;;;;;;0.93;100.00;100637.34;5033876;28;20044;-78
2022/11/21 03:44:13;;;;;;;159.55;34.00;;;;;;;0.91;100.00;100636.56;5034035;28;20079;-79
2022/11/21 03:46:41;;;;;;;147.48;32.10;;;;;;;0.88;100.00;100632.34;5034094;28;20025;-79
2022/11/21 03:49:07;;;;;;;126.32;32.30;;;;;;;0.88;100.00;100633.19;5033890;28;20025;-79
2022/11/21 03:51:34;;;;;;;129.77;32.38;;;;;;;0.90;100.00;100638.34;5033883;28;20389;-79
2022/11/21 03:54:00;;;;;;;130.00;33.10;;;;;;;0.91;100.00;100636.56;5033860;28;20037;-79
2022/11/21 03:56:26;;;;;;;157.48;32.65;;;;;;;0.92;100.00;100623.38;5033808;28;20116;-79
2022/11/21 03:58:52;;;;;;;156.48;34.28;;;;;;;0.94;100.00;100620.69;5033585;28;20116;-79
2022/11/21 04:01:17;;;;;;;193.85;34.15;;;;;;;0.93;100.00;100614.59;5033377;28;20025;-79
2022/11/21 04:03:44;;;;;;;155.75;32.67;;;;;;;0.94;100.00;100623.31;5033740;28;20034;-79
2022/11/21 04:06:14;;;;;;;174.88;34.35;;;;;;;0.94;100.00;100626.78;5033208;28;20037;-79
2022/11/21 04:08:40;;;;;;;176.50;34.67;;;;;;;0.96;100.00;100630.16;5033706;28;20472;-79
2022/11/21 04:11:06;;;;;;;104.68;31.48;;;;;;;0.96;100.00;100627.53;5033377;28;20033;-79
2022/11/21 04:13:31;;;;;;;195.05;34.95;;;;;;;0.99;100.00;100622.13;5033430;28;20116;-79
2022/11/21 04:15:57;;;;;;;147.65;35.33;;;;;;;1.00;100.00;100621.22;5033115;28;20092;-80
2022/11/21 04:18:22;;;;;;;140.05;32.88;;;;;;;1.04;100.00;100625.34;5032818;28;20108;-79
2022/11/21 04:20:48;;;;;;;160.25;34.90;;;;;;;1.07;100.00;100626.13;5033730;28;20064;-79
2022/11/21 04:23:13;;;;;;;163.50;33.97;;;;;;;1.09;100.00;100629.50;5033271;28;20029;-80
2022/11/21 04:25:40;;;;;;;154.48;33.50;;;;;;;1.09;100.00;100622.50;5033713;28;20525;-80
2022/11/21 04:28:05;;;;;;;188.32;35.38;;;;;;;1.12;100.00;100621.47;5033245;28;20461;-80
2022/11/21 04:30:32;;;;;;;145.38;33.22;;;;;;;1.12;100.00;100619.69;5033306;28;20112;-80
2022/11/21 04:32:58;;;;;;;150.80;33.10;;;;;;;1.13;100.00;100615.28;5033777;28;20116;-81
2022/11/21 04:35:23;;;;;;;161.95;33.45;;;;;;;1.14;100.00;100614.38;5048405;28;20121;-80
2022/11/21 04:37:50;;;;;;;146.27;34.55;;;;;;;1.15;100.00;100613.44;5033358;28;20088;-81
2022/11/21 04:40:15;;;;;;;141.60;32.83;;;;;;;1.15;100.00;100609.06;5033038;28;20504;-80
2022/11/21 04:42:45;;;;;;;133.80;33.80;;;;;;;1.15;100.00;100603.81;5033336;28;20068;-80
2022/11/21 04:45:12;;;;;;;158.05;33.70;;;;;;;1.16;100.00;100600.22;5032873;28;20041;-79
2022/11/21 04:47:39;;;;;;;170.07;33.00;;;;;;;1.14;100.00;100590.78;5033438;28;20099;-79
2022/11/21 04:50:05;;;;;;;164.88;32.92;;;;;;;1.13;100.00;100584.69;5032939;28;20074;-80
2022/11/21 04:52:30;;;;;;;159.68;30.75;;;;;;;1.11;100.00;100581.31;5033249;28;20042;-79
2022/11/21 04:54:56;;;;;;;156.98;32.00;;;;;;;1.10;100.00;100584.03;5033241;28;20044;-79
2022/11/21 04:57:21;;;;;;;152.30;31.50;;;;;;;1.08;100.00;100586.72;5033257;28;20099;-78
2022/11/21 04:59:47;;;;;;;118.72;30.00;;;;;;;1.06;100.00;100591.22;5032792;28;20382;-80
2022/11/21 05:02:12;;;;;;;149.57;32.83;;;;;;;1.03;100.00;100586.97;5015548;28;20037;-81
2022/11/21 05:04:38;;;;;;;122.00;30.65;;;;;;;1.02;100.00;100585.28;5033075;28;20033;-80
2022/11/21 05:07:03;;;;;;;96.70;28.23;;;;;;;1.04;100.00;100583.41;5033060;28;20497;-80
2022/11/21 05:09:29;;;;;;;99.90;29.33;;;;;;;1.04;100.00;100580.78;5032931;28;20029;-80
2022/11/21 05:14:38;;;;;;;125.07;31.08;;;;;;;0.99;100.00;100574.13;5033116;28;20132;-80
2022/11/21 05:17:03;;;;;;;127.40;31.00;;;;;;;0.97;100.00;100568.97;5033396;28;20100;-79
2022/11/21 05:19:29;;;;;;;124.35;29.70;;;;;;;0.93;100.00;100564.00;5033235;28;20083;-80
2022/11/21 05:21:54;;;;;;;120.05;29.55;;;;;;;0.88;100.00;100561.59;5032541;28;20045;-79
2022/11/21 05:24:19;;;;;;;121.65;30.17;;;;;;;0.84;100.00;100553.06;5033016;28;20037;-80
2022/11/21 05:26:45;;;;;;;145.65;30.42;;;;;;;0.82;100.00;100551.47;5031736;28;20037;-80
2022/11/21 05:29:11;;;;;;;119.25;30.88;;;;;;;0.77;100.00;100541.22;5033128;28;20037;-80
2022/11/21 05:31:37;;;;;;;94.18;29.48;;;;;;;0.76;100.00;100541.31;5037013;28;20030;-80
2022/11/21 05:34:02;;;;;;;133.45;30.60;;;;;;;0.74;100.00;100540.56;5036619;28;20369;-81
2022/11/21 05:36:28;;;;;;;133.18;30.23;;;;;;;0.70;100.00;100539.88;5036843;28;20041;-80
2022/11/21 05:38:53;;;;;;;91.38;28.10;;;;;;;0.68;100.00;100539.13;5036886;28;20025;-80
2022/11/21 05:41:19;;;;;;;161.38;31.27;;;;;;;0.64;100.00;100533.22;5036381;28;20052;-79
2022/11/21 05:43:44;;;;;;;98.75;28.23;;;;;;;0.62;100.00;100529.81;5035400;28;20078;-80
2022/11/21 05:46:10;;;;;;;127.85;30.10;;;;;;;0.58;100.00;100527.44;5036197;28;20037;-80
2022/11/21 05:48:36;;;;;;;116.68;27.60;;;;;;;0.56;100.00;100531.94;5036158;28;20477;-79
2022/11/21 05:51:02;;;;;;;122.75;29.10;;;;;;;0.53;100.00;100530.31;5036417;28;20120;-79
2022/11/21 05:53:28;;;;;;;147.50;30.33;;;;;;;0.53;100.00;100528.53;5036529;28;20037;-80
2022/11/21 05:55:53;;;;;;;92.40;27.92;;;;;;;0.52;100.00;100531.22;5034782;28;20036;-80
2022/11/21 05:58:19;;;;;;;154.77;28.75;;;;;;;0.51;100.00;100525.16;5035969;28;20489;-80
2022/11/21 06:00:44;;;;;;;105.05;27.85;;;;;;;0.51;100.00;100519.94;5036063;28;20049;-79
2022/11/21 06:06:01;;;;;;;113.85;28.27;;;;;;;0.57;100.00;100528.38;5035849;28;20049;-79
2022/11/21 06:08:28;;;;;;;152.05;29.42;;;;;;;0.57;100.00;100524.00;5035627;28;20033;-79
2022/11/21 06:10:53;;;;;;;142.70;27.42;;;;;;;0.60;100.00;100517.72;5035334;28;20035;-78
2022/11/21 06:13:22;;;;;;;97.13;27.83;;;;;;;0.62;100.00;100502.78;5035894;28;20029;-80
2022/11/21 06:15:51;;;;;;;105.85;26.55;;;;;;;0.64;100.00;100503.53;5035094;28;20053;-78
2022/11/21 06:18:17;;;;;;;101.57;26.58;;;;;;;0.63;100.00;100496.63;5035386;28;20048;-79
2022/11/21 06:20:42;;;;;;;124.05;28.17;;;;;;;0.62;100.00;100490.53;5035643;28;20469;-78
2022/11/21 06:23:07;;;;;;;143.57;27.77;;;;;;;0.62;100.00;100493.16;5035147;28;20033;-77
2022/11/21 06:25:33;;;;;;;95.53;26.25;;;;;;;0.62;100.00;100493.16;5035967;28;20037;-79
2022/11/21 06:27:59;;;;;;;104.72;26.92;;;;;;;0.63;100.00;100492.25;5034102;28;20069;-79
2022/11/21 06:30:24;;;;;;;132.13;28.23;;;;;;;0.63;100.00;100480.94;5034022;28;20071;-78
2022/11/21 06:32:50;;;;;;;113.75;26.98;;;;;;;0.64;100.00;100490.44;5035345;28;20033;-78
2022/11/21 06:35:15;;;;;;;141.27;28.25;;;;;;;0.64;100.00;100482.59;5035937;28;20355;-79
2022/11/21 06:37:40;;;;;;;84.20;25.77;;;;;;;0.63;100.00;100473.91;5035535;28;20033;-78
2022/11/21 06:40:06;;;;;;;123.07;27.95;;;;;;;0.64;100.00;100475.59;5034178;28;20099;-79
2022/11/21 06:42:31;;;;;;;99.25;26.30;;;;;;;0.64;100.00;100480.84;5034981;28;20037;-79
2022/11/21 06:44:57;;;;;;;105.90;26.05;;;;;;;0.66;100.00;100483.38;5035245;28;20351;-79
2022/11/21 06:47:22;;;;;;;129.35;27.70;;;;;;;0.66;100.00;100475.53;5035184;28;20116;-79
2022/11/21 06:49:47;;;;;;;81.07;25.77;;;;;;;0.64;100.00;100459.91;5035237;28;20029;-79
2022/11/21 06:52:13;;;;;;;77.38;26.00;;;;;;;0.62;100.00;100443.41;5033653;28;20494;-78
2022/11/21 06:54:38;;;;;;;65.68;25.15;;;;;;;0.58;100.00;100452.34;5034807;28;20029;-78
2022/11/21 06:57:04;;;;;;;68.60;25.25;;;;;;;0.53;100.00;100454.38;5035107;28;20045;-79
2022/11/21 06:59:29;;;;;;;62.25;24.98;;;;;;;0.47;100.00;100446.88;5035000;28;20029;-79
2022/11/21 07:01:54;;;;;;;60.28;23.33;;;;;;;0.42;100.00;100448.88;5034292;28;20038;-78
2022/11/21 07:04:20;;;;;;;61.58;25.13;;;;;;;0.39;100.00;100449.06;5034564;28;20423;-79
2022/11/21 07:06:45;;;;;;;66.90;24.80;;;;;;;0.38;100.00;100450.00;5033368;28;20363;-79
2022/11/21 07:09:11;;;;;;;77.03;27.20;;;;;;;0.39;100.00;100449.06;5034228;28;20042;-78
2022/11/21 07:11:36;;;;;;;74.88;25.38;;;;;;;0.41;100.00;100457.69;5034555;28;20029;-78
2022/11/21 07:14:01;;;;;;;71.50;25.08;;;;;;;0.42;100.00;100456.72;5034452;28;20467;-78
2022/11/21 07:16:30;;;;;;;67.63;25.92;;;;;;;0.42;100.00;100456.72;5033637;28;20092;-79
2022/11/21 07:18:56;;;;;;;71.22;25.88;;;;;;;0.42;100.00;100457.59;5034697;28;20041;-77
2022/11/21 07:21:21;;;;;;;72.95;26.80;;;;;;;0.45;100.00;100456.56;5034278;28;20045;-78
2022/11/21 07:23:47;;;;;;;70.50;26.48;;;;;;;0.49;100.00;100453.72;5034101;28;20482;-79
2022/11/21 07:26:12;;;;;;;80.75;26.92;;;;;;;0.54;100.00;100448.22;5034251;28;20033;-78
2022/11/21 07:28:38;;;;;;;84.07;27.27;;;;;;;0.58;100.00;100449.72;5034216;28;20038;-78
2022/11/21 07:31:03;;;;;;;73.35;27.42;;;;;;;0.61;100.00;100441.72;5034105;28;20131;-78
2022/11/21 07:33:29;;;;;;;74.82;26.20;;;;;;;0.63;100.00;100452.97;5034035;28;20025;-77
2022/11/21 07:35:56;;;;;;;68.47;25.50;;;;;;;0.63;100.00;100442.47;5034247;28;20048;-78
2022/11/21 07:38:22;;;;;;;78.22;26.58;;;;;;;0.60;100.00;100445.28;5033191;28;20358;-77
2022/11/21 07:40:47;;;;;;;75.60;26.27;;;;;;;0.58;100.00;100452.34;5034090;28;20021;-78
2022/11/21 07:43:12;;;;;;;73.38;25.98;;;;;;;0.57;100.00;100448.06;5033881;28;20457;-78
2022/11/21 07:45:38;;;;;;;73.50;26.65;;;;;;;0.57;100.00;100436.72;5033892;28;20453;-77
2022/11/21 07:48:06;;;;;;;75.00;26.63;;;;;;;0.62;100.00;100439.94;5033871;28;20034;-77
2022/11/21 07:50:31;;;;;;;90.18;27.00;;;;;;;0.67;100.00;100441.41;5033889;28;20033;-77
2022/11/21 07:52:58;;;;;;;83.80;27.33;;;;;;;0.72;100.00;100429.78;5033917;28;20110;-78
2022/11/21 07:55:24;;;;;;;84.22;27.70;;;;;;;0.77;100.00;100430.41;5033353;28;20438;-77
2022/11/21 07:57:59;;;;;;;195.60;28.83;;;;;;;0.81;100.00;100430.13;5032597;28;20029;-78
2022/11/21 08:00:26;;;;;;;263.85;30.73;;;;;;;0.85;100.00;100426.41;5033702;28;20037;-78
2022/11/21 08:02:52;;;;;;;201.63;29.02;;;;;;;0.90;100.00;100426.16;5033670;28;20037;-77
2022/11/21 08:05:17;;;;;;;80.38;24.88;;;;;;;0.94;100.00;100424.19;5033696;28;20025;-77
2022/11/21 08:07:42;;;;;;;213.93;28.38;;;;;;;0.97;100.00;100418.78;5032498;28;20041;-77
2022/11/21 08:10:08;;;;;;;219.27;28.30;;;;;;;1.00;100.00;100413.34;5033947;28;20029;-77
2022/11/21 08:12:33;;;;;;;70.30;23.40;;;;;;;1.05;100.00;100416.56;5032853;28;20029;-79
2022/11/21 08:14:58;;;;;;;182.35;26.30;;;;;;;1.10;100.00;100408.44;5033037;28;20060;-79
2022/11/21 08:17:27;;;;;;;137.75;24.17;;;;;;;1.12;100.00;100407.44;5033169;28;20089;-79
2022/11/21 08:19:52;;;;;;;96.65;23.90;;;;;;;1.17;100.00;100397.50;5033383;28;20454;-78
2022/11/21 08:22:18;;;;;;;137.27;25.42;;;;;;;1.23;100.00;100397.16;5033158;28;20071;-78
2022/11/21 08:24:43;;;;;;;117.57;23.30;;;;;;;1.27;100.00;100392.59;5032551;28;20030;-79
2022/11/21 08:27:08;;;;;;;125.35;25.10;;;;;;;1.30;100.00;100384.53;5032989;28;20458;-79
2022/11/21 08:29:34;;;;;;;75.20;23.35;;;;;;;1.35;100.00;100385.09;5032871;28;20075;-78
2022/11/21 08:31:59;;;;;;;74.75;23.58;;;;;;;1.38;100.00;100389.31;5033010;28;20029;-76
2022/11/21 08:34:25;;;;;;;74.03;23.38;;;;;;;1.41;100.00;100383.91;5032595;28;20103;-77
2022/11/21 08:36:50;;;;;;;55.67;22.25;;;;;;;1.44;100.00;100383.72;5032882;28;20026;-78
2022/11/21 08:39:15;;;;;;;63.83;23.10;;;;;;;1.47;100.00;100374.81;5032450;28;20438;-78
2022/11/21 08:44:25;;;;;;;51.92;21.35;;;;;;;1.62;100.00;100379.13;5033064;28;20048;-80
2022/11/21 08:46:50;;;;;;;55.55;22.42;;;;;;;1.68;100.00;100372.69;5032756;28;20026;-76
2022/11/21 08:49:15;;;;;;;64.40;22.92;;;;;;;1.71;100.00;100369.88;5032738;28;20044;-79
2022/11/21 08:51:41;;;;;;;57.08;22.05;;;;;;;1.77;100.00;100372.13;5032741;28;20076;-77
2022/11/21 08:54:08;;;;;;;63.17;23.55;;;;;;;1.84;100.00;100367.34;5032940;28;20136;-78
2022/11/21 08:56:33;;;;;;;55.33;21.15;;;;;;;1.91;100.00;100363.38;5032371;28;20064;-77
2022/11/21 08:58:59;;;;;;;65.90;22.50;;;;;;;1.99;100.00;100363.78;5032527;28;20037;-77
2022/11/21 09:01:24;;;;;;;60.28;21.70;;;;;;;2.03;100.00;100353.91;5032356;28;20038;-76
2022/11/21 09:03:49;;;;;;;58.90;21.67;;;;;;;2.06;100.00;100353.72;5032663;28;20231;-78
2022/11/21 09:06:15;;;;;;;57.78;21.75;;;;;;;2.08;100.00;100350.06;5051786;28;20037;-80
2022/11/21 09:08:40;;;;;;;49.67;20.77;;;;;;;2.15;100.00;100347.91;5035289;28;20030;-76
2022/11/21 09:11:07;;;;;;;57.22;21.23;;;;;;;2.25;100.00;100342.91;5036592;28;20103;-77
2022/11/21 09:13:34;;;;;;;60.45;22.52;;;;;;;2.33;100.00;100335.41;5037180;28;20393;-77
2022/11/21 09:18:44;;;;;;;54.85;21.55;;;;;;;2.55;100.00;100326.94;5036069;28;20048;-77
2022/11/21 09:21:14;;;;;;;52.83;22.05;;;;;;;2.64;100.00;100328.13;5036280;28;20386;-77
2022/11/21 09:23:40;;;;;;;49.28;21.45;;;;;;;2.73;100.00;100331.94;5036048;28;20144;-78
2022/11/21 09:26:05;;;;;;;47.50;21.48;;;;;;;2.79;100.00;100332.41;5036739;28;20477;-78
2022/11/21 09:28:30;;;;;;;53.42;20.63;;;;;;;2.85;100.00;100320.63;5036752;28;20095;-77
2022/11/21 09:30:56;;;;;;;53.08;20.08;;;;;;;2.93;100.00;100317.50;5036076;28;20033;-77
2022/11/21 09:33:21;;;;;;;52.30;20.38;;;;;;;3.03;100.00;100317.72;5036027;28;20037;-77
2022/11/21 09:35:46;;;;;;;45.75;18.83;;;;;;;3.11;100.00;100310.16;5035794;28;20033;-78
2022/11/21 09:38:12;;;;;;;46.00;19.08;;;;;;;3.18;100.00;100301.75;5036545;28;20107;-78
2022/11/21 09:40:42;;;;;;;50.92;19.48;;;;;;;3.32;100.00;100305.22;5035966;28;20030;-78
2022/11/21 09:43:51;;;;;;;44.20;19.05;;;;;;;3.48;100.00;100305.03;5036100;28;20021;-78
2022/11/21 09:46:20;;;;;;;46.15;18.48;;;;;;;3.61;100.00;100305.00;5033110;28;20041;-78
2022/11/21 09:48:57;;;;;;;40.17;15.80;;;;;;;3.78;100.00;100309.91;5035745;28;20034;-78
2022/11/21 09:51:24;;;;;;;34.60;15.45;;;;;;;3.98;100.00;100308.50;5036203;28;20025;-78
2022/11/21 09:54:04;;;;;;;34.95;15.95;;;;;;;4.15;100.00;100304.66;5035503;28;20351;-78
2022/11/21 09:56:35;;;;;;;35.50;15.73;;;;;;;4.36;100.00;100293.50;5036262;28;20458;-78
2022/11/21 09:59:16;;;;;;;34.45;14.52;;;;;;;4.54;100.00;100293.97;5035907;28;20026;-78
2022/11/21 10:01:41;;;;;;;30.30;13.10;;;;;;;4.72;100.00;100283.84;5036453;28;20385;-77
2022/11/21 10:04:06;;;;;;;25.77;11.85;;;;;;;4.78;100.00;100283.38;5035888;28;20029;-77
2022/11/21 10:06:53;;;;;;;26.35;10.45;;;;;;;4.91;100.00;100284.16;5035883;28;20386;-77
2022/11/21 10:09:46;;;;;;;19.48;10.70;;;;;;;5.09;100.00;100279.25;5036099;28;20060;-78
2022/11/21 10:12:38;;;;;;;31.70;9.40;;;;;;;5.33;100.00;100270.41;5035778;28;20504;-79
2022/11/21 10:15:52;;;;;;;19.52;7.70;;;;;;;5.59;100.00;100268.38;5035410;28;20077;-77
2022/11/21 10:18:30;;;;;;;12.73;6.05;;;;;;;5.71;100.00;100266.56;5033006;28;20052;-76
2022/11/21 10:21:18;;;;;;;14.23;5.90;;;;;;;5.76;100.00;100263.56;5035810;28;20480;-78
2022/11/21 10:24:06;;;;;;;16.38;5.70;;;;;;;5.78;100.00;100265.13;5035610;28;20053;-78
2022/11/21 10:26:50;;;;;;;13.52;5.93;;;;;;;5.89;100.00;100258.16;5035418;28;20120;-81
2022/11/21 10:29:21;;;;;;;18.33;5.60;;;;;;;5.90;100.00;100252.75;5035395;28;20041;-74
2022/11/21 10:31:48;;;;;;;13.23;5.07;;;;;;;5.94;100.00;100250.69;5035630;28;20116;-78
2022/11/21 10:34:23;;;;;;;11.02;4.20;;;;;;;5.91;100.00;100241.22;5034899;28;20474;-75
2022/11/21 10:36:58;;;;;;;19.60;5.13;;;;;;;6.04;100.00;100246.38;5035332;28;20036;-78
2022/11/21 10:39:40;;;;;;;16.40;4.50;;;;;;;6.09;100.00;100236.28;5034918;28;20029;-77
2022/11/21 10:42:08;;;;;;;17.45;4.28;;;;;;;6.10;100.00;100240.59;5035170;28;20102;-78
2022/11/21 10:47:27;;;;;;;17.05;4.00;;;;;;;6.05;100.00;100228.75;5047710;28;20072;-77
2022/11/21 10:50:11;;;;;;;8.27;3.45;;;;;;;6.09;100.00;100233.66;5034967;28;20025;-77
2022/11/21 10:53:01;;;;;;;19.73;4.18;;;;;;;6.11;100.00;100225.59;5034486;28;20029;-78
2022/11/21 10:55:27;;;;;;;13.75;4.20;;;;;;;6.15;100.00;100221.72;5033520;28;20523;-78
2022/11/21 10:57:53;;;;;;;14.05;4.43;;;;;;;6.32;100.00;100218.53;5033407;28;20116;-78
2022/11/21 11:00:26;;;;;;;13.13;4.30;;;;;;;6.48;100.00;100220.75;5034475;28;20450;-78
2022/11/21 11:02:54;;;;;;;15.88;5.10;;;;;;;6.58;100.00;100217.34;5033482;28;20036;-79
2022/11/21 11:05:25;;;;;;;12.68;4.57;;;;;;;6.66;100.00;100212.25;5034745;28;20036;-78
2022/11/21 11:08:02;;;;;;;13.33;4.50;;;;;;;6.69;100.00;100215.47;5034534;28;20508;-79
2022/11/21 11:10:29;;;;;;;11.75;4.88;;;;;;;6.68;100.00;100207.66;5034104;28;20030;-78
2022/11/21 11:15:53;;;;;;;13.10;4.93;;;;;;;6.79;100.00;100198.81;5034525;28;20049;-78
2022/11/21 11:18:22;;;;;;;10.43;5.28;;;;;;;6.92;100.00;100194.16;5035130;28;20434;-76
2022/11/21 11:20:48;;;;;;;13.27;5.18;;;;;;;7.04;100.00;100187.00;5033760;28;20029;-78
2022/11/21 11:23:25;;;;;;;11.50;4.63;;;;;;;7.11;100.00;100188.13;5034648;28;20083;-80
2022/11/21 11:25:58;;;;;;;9.73;4.50;;;;;;;7.27;100.00;100179.72;5033084;28;20059;-78